Time;durP1;ratioP1;P1;durP2;ratioP2;P2;SDS_P1;SDS_P2;PMS_P1;PMS_P2;Temp;Humidity;BMP_temperature;BMP_pressure;BME280_temperature;BME280_humidity;BME280_pressure;Samples;Min_cycle;Max_cycle;Signal;HPM_P1;HPM_P2
2022/01/25 00:10:15;;;;;;;22.97;15.80;;;5.70;99.90;;;;;;625366;228;27077;-73
2022/01/25 00:15:16;;;;;;;22.87;15.33;;;5.60;99.90;;;;;;625388;230;26543;-72
2022/01/25 00:27:53;;;;;;;23.93;16.67;;;5.70;99.90;;;;;;625486;229;26543;-73
2022/01/25 00:30:30;;;;;;;25.50;17.70;;;5.70;99.90;;;;;;625274;229;26535;-73
2022/01/25 00:32:49;;;;;;;25.23;18.23;;;5.80;99.90;;;;;;624962;229;26850;-72
2022/01/25 00:35:16;;;;;;;29.00;16.80;;;6.10;99.90;;;;;;626020;227;26536;-70
2022/01/25 00:37:44;;;;;;;25.57;17.20;;;6.30;99.90;;;;;;627064;228;27004;-70
2022/01/25 00:40:11;;;;;;;24.03;16.40;;;6.30;99.90;;;;;;626703;229;26625;-70
2022/01/25 00:42:39;;;;;;;24.17;17.77;;;5.90;99.90;;;;;;626471;228;26567;-70
2022/01/25 00:45:10;;;;;;;27.53;17.67;;;5.60;99.90;;;;;;626317;228;26541;-70
2022/01/25 00:47:34;;;;;;;24.30;17.60;;;5.60;99.90;;;;;;625965;229;26604;-70
2022/01/25 00:50:02;;;;;;;24.07;16.60;;;5.60;99.90;;;;;;626121;229;26872;-70
2022/01/25 00:55:14;;;;;;;23.07;16.23;;;5.20;99.90;;;;;;623234;229;26624;-71
2022/01/25 00:57:42;;;;;;;24.43;16.83;;;5.20;99.90;;;;;;625786;228;26556;-70
2022/01/25 01:00:11;;;;;;;21.60;15.00;;;5.30;99.90;;;;;;625769;229;26617;-70
2022/01/25 01:02:38;;;;;;;25.10;16.70;;;5.20;99.90;;;;;;625772;228;26602;-70
2022/01/25 01:05:06;;;;;;;23.77;16.40;;;5.30;99.90;;;;;;625820;228;26573;-70
2022/01/25 01:07:33;;;;;;;24.67;16.63;;;5.40;99.90;;;;;;625813;230;26588;-71
2022/01/25 01:10:01;;;;;;;25.33;17.17;;;5.50;99.90;;;;;;625846;229;26879;-71
2022/01/25 01:29:03;;;;;;;22.63;16.97;;;5.20;99.90;;;;;;625531;230;26558;-70
2022/01/25 01:31:00;;;;;;;22.10;15.53;;;5.50;99.90;;;;;;625496;229;26527;-70
2022/01/25 01:33:44;;;;;;;22.27;16.23;;;5.50;99.90;;;;;;624645;229;26522;-70
2022/01/25 01:41:21;;;;;;;28.33;17.37;;;5.60;99.90;;;;;;625511;230;26841;-70
2022/01/25 01:43:34;;;;;;;24.50;17.40;;;5.20;99.90;;;;;;623854;229;26543;-70
2022/01/25 01:46:19;;;;;;;26.33;17.43;;;5.00;99.90;;;;;;625342;229;26555;-70
2022/01/25 01:48:30;;;;;;;25.43;17.23;;;5.00;99.90;;;;;;625776;227;26888;-70
2022/01/25 01:50:57;;;;;;;27.03;17.40;;;5.10;99.90;;;;;;626630;229;26589;-70
2022/01/25 01:53:23;;;;;;;26.53;18.07;;;4.90;99.90;;;;;;626313;229;27058;-70
2022/01/25 01:55:50;;;;;;;25.63;16.43;;;4.90;99.90;;;;;;626303;229;26533;-70
2022/01/25 01:58:17;;;;;;;25.03;16.77;;;5.00;99.90;;;;;;626037;228;26806;-70
2022/01/25 02:00:44;;;;;;;25.20;16.67;;;5.20;99.90;;;;;;626061;228;26578;-70
2022/01/25 02:03:11;;;;;;;26.30;17.50;;;5.10;99.90;;;;;;625916;227;27526;-70
2022/01/25 02:05:39;;;;;;;28.20;18.13;;;5.20;99.90;;;;;;625857;228;26613;-70
2022/01/25 02:08:07;;;;;;;30.30;17.60;;;5.00;99.90;;;;;;625761;230;26599;-70
2022/01/25 02:10:35;;;;;;;27.77;18.50;;;5.10;99.90;;;;;;625752;228;26665;-70
2022/01/25 02:13:04;;;;;;;27.20;18.00;;;5.20;99.90;;;;;;625874;228;26596;-70
2022/01/25 02:15:31;;;;;;;29.20;17.43;;;5.20;99.90;;;;;;625698;228;26797;-70
2022/01/25 02:23:12;;;;;;;31.90;19.13;;;5.00;99.90;;;;;;625697;228;26576;-70
2022/01/25 02:25:40;;;;;;;31.57;19.30;;;4.80;99.90;;;;;;625457;223;26584;-70
2022/01/25 02:28:07;;;;;;;32.07;20.07;;;4.80;99.90;;;;;;625371;228;26785;-70
2022/01/25 02:30:34;;;;;;;31.67;19.50;;;5.10;99.90;;;;;;625402;229;26525;-70
2022/01/25 02:33:01;;;;;;;32.93;18.97;;;5.50;99.90;;;;;;625421;228;26802;-70
2022/01/25 02:35:29;;;;;;;36.73;20.17;;;5.30;99.90;;;;;;625535;228;26540;-70
2022/01/25 02:37:56;;;;;;;34.73;21.83;;;4.80;99.90;;;;;;625422;224;26773;-70
2022/01/25 02:40:24;;;;;;;38.00;23.27;;;4.80;99.90;;;;;;625433;229;26549;-70
2022/01/25 02:42:53;;;;;;;34.27;20.60;;;4.90;99.90;;;;;;625485;229;26582;-70
2022/01/25 02:45:21;;;;;;;38.43;21.63;;;5.10;99.90;;;;;;625343;229;26608;-70
2022/01/25 02:50:21;;;;;;;36.13;21.53;;;4.80;99.90;;;;;;625550;230;26782;-70
2022/01/25 02:52:48;;;;;;;37.27;22.33;;;4.70;99.90;;;;;;625507;228;26938;-70
2022/01/25 02:55:17;;;;;;;39.90;22.53;;;5.00;99.90;;;;;;625473;228;26556;-70
2022/01/25 02:57:42;;;;;;;35.20;20.50;;;5.00;99.90;;;;;;625827;229;26813;-69
2022/01/25 03:00:10;;;;;;;36.37;21.37;;;4.70;99.90;;;;;;627264;228;26779;-70
2022/01/25 03:02:37;;;;;;;37.33;21.57;;;4.90;99.90;;;;;;626596;228;26920;-70
2022/01/25 03:05:04;;;;;;;45.30;21.20;;;5.20;99.90;;;;;;626379;229;26506;-70
2022/01/25 03:07:33;;;;;;;38.50;21.63;;;5.20;99.90;;;;;;626381;229;26529;-70
2022/01/25 03:10:00;;;;;;;36.37;21.43;;;5.00;99.90;;;;;;626057;228;26586;-70
2022/01/25 03:12:38;;;;;;;41.87;20.60;;;4.70;99.90;;;;;;625978;229;26560;-70
2022/01/25 03:15:12;;;;;;;37.83;22.03;;;4.70;99.90;;;;;;626162;228;26595;-70
2022/01/25 03:17:29;;;;;;;37.57;21.17;;;4.60;99.90;;;;;;626059;228;26569;-70
2022/01/25 03:20:03;;;;;;;38.37;21.30;;;4.60;99.90;;;;;;625544;229;26625;-70
2022/01/25 03:22:43;;;;;;;37.67;20.40;;;4.60;99.90;;;;;;628084;225;26776;-70
2022/01/25 03:24:46;;;;;;;34.93;19.90;;;4.20;99.90;;;;;;628881;228;26783;-70
2022/01/25 03:27:13;;;;;;;42.47;22.07;;;4.00;99.90;;;;;;629415;228;26519;-70
2022/01/25 03:29:40;;;;;;;37.17;21.67;;;4.20;99.90;;;;;;629521;228;26758;-70
2022/01/25 03:32:08;;;;;;;39.60;22.17;;;4.50;99.90;;;;;;629550;228;26538;-71
2022/01/25 03:34:35;;;;;;;39.27;21.63;;;4.70;99.90;;;;;;629467;228;26707;-70
2022/01/25 03:37:02;;;;;;;40.20;22.30;;;4.70;99.90;;;;;;629241;228;26560;-70
2022/01/25 03:39:29;;;;;;;38.10;23.03;;;5.00;99.90;;;;;;629225;228;26755;-70
2022/01/25 03:41:56;;;;;;;42.23;21.77;;;5.30;99.90;;;;;;629315;228;26580;-70
2022/01/25 03:44:24;;;;;;;37.47;20.40;;;5.20;99.90;;;;;;629230;228;26979;-70
2022/01/25 03:47:01;;;;;;;35.87;20.90;;;4.70;99.90;;;;;;629078;228;26588;-70
2022/01/25 03:51:53;;;;;;;40.70;21.37;;;4.40;99.90;;;;;;628748;229;26603;-70
2022/01/25 03:54:21;;;;;;;38.47;20.77;;;4.20;99.90;;;;;;628839;229;26631;-70
2022/01/25 03:56:48;;;;;;;37.43;20.37;;;4.30;99.90;;;;;;628878;228;26612;-70
2022/01/25 03:59:15;;;;;;;38.60;21.20;;;4.10;99.90;;;;;;628801;229;26819;-70
2022/01/25 04:01:42;;;;;;;35.40;19.67;;;4.20;99.90;;;;;;628847;229;26603;-70
2022/01/25 04:04:13;;;;;;;32.13;19.33;;;4.10;99.90;;;;;;628837;223;26852;-72
2022/01/25 04:06:37;;;;;;;33.83;18.57;;;4.00;99.90;;;;;;628506;229;26607;-70
2022/01/25 04:09:04;;;;;;;31.93;19.17;;;3.90;99.90;;;;;;628641;229;26833;-70
2022/01/25 04:11:31;;;;;;;35.80;20.40;;;4.10;99.90;;;;;;630303;226;26623;-70
2022/01/25 04:13:58;;;;;;;30.37;18.40;;;4.10;99.90;;;;;;630106;228;26747;-70
2022/01/25 04:16:30;;;;;;;34.97;18.63;;;4.10;99.90;;;;;;629793;228;26567;-70
2022/01/25 04:19:02;;;;;;;34.87;20.23;;;4.10;99.90;;;;;;629272;228;27252;-70
2022/01/25 04:21:43;;;;;;;32.17;19.33;;;4.40;99.90;;;;;;628661;228;26809;-70
2022/01/25 04:26:26;;;;;;;30.07;18.00;;;4.50;99.90;;;;;;629508;228;26618;-70
2022/01/25 04:28:53;;;;;;;30.43;18.10;;;4.50;99.90;;;;;;629234;228;26542;-70
2022/01/25 04:31:20;;;;;;;34.17;19.07;;;4.40;99.90;;;;;;629147;228;26571;-70
2022/01/25 04:34:08;;;;;;;33.43;18.33;;;4.50;99.90;;;;;;629167;228;26799;-70
2022/01/25 04:49:06;;;;;;;29.50;17.33;;;4.50;99.90;;;;;;628866;229;26606;-70
2022/01/25 04:54:09;;;;;;;29.57;16.97;;;4.70;99.90;;;;;;628886;228;26576;-70
2022/01/25 04:56:38;;;;;;;28.53;16.80;;;4.80;99.90;;;;;;628716;229;26595;-70
2022/01/25 04:59:06;;;;;;;29.50;17.90;;;4.70;99.90;;;;;;627964;229;26855;-70
2022/01/25 05:01:24;;;;;;;32.53;18.57;;;5.00;99.90;;;;;;628720;228;26627;-70
2022/01/25 05:04:00;;;;;;;27.67;15.63;;;4.40;99.90;;;;;;628873;228;26579;-70
2022/01/25 05:06:22;;;;;;;32.43;16.63;;;4.40;99.90;;;;;;628300;229;26587;-70
2022/01/25 05:08:53;;;;;;;24.83;15.13;;;4.40;99.90;;;;;;628814;228;26865;-70
2022/01/25 05:11:27;;;;;;;27.53;15.53;;;4.50;99.90;;;;;;628600;229;26605;-70
2022/01/25 05:13:55;;;;;;;29.27;17.57;;;4.30;99.90;;;;;;627688;229;26808;-70
2022/01/25 05:16:26;;;;;;;29.53;17.50;;;4.30;99.90;;;;;;628678;229;26601;-70
2022/01/25 05:18:45;;;;;;;30.33;17.30;;;4.20;99.90;;;;;;627688;229;26598;-70
2022/01/25 05:23:41;;;;;;;28.07;17.63;;;4.30;99.90;;;;;;630539;227;26891;-70
2022/01/25 05:26:08;;;;;;;33.43;17.13;;;4.40;99.90;;;;;;629997;228;26743;-70
2022/01/25 05:28:35;;;;;;;30.47;17.20;;;4.60;99.90;;;;;;629638;228;26868;-70
2022/01/25 05:31:02;;;;;;;29.00;16.00;;;4.90;99.90;;;;;;629666;228;26599;-70
2022/01/25 05:33:29;;;;;;;27.80;17.53;;;4.80;99.90;;;;;;629477;223;26765;-70
2022/01/25 05:35:57;;;;;;;29.17;17.13;;;4.50;99.90;;;;;;629474;228;26534;-70
2022/01/25 05:38:24;;;;;;;25.73;16.03;;;4.40;99.90;;;;;;629627;228;26772;-70
2022/01/25 05:40:59;;;;;;;27.70;15.67;;;4.20;99.90;;;;;;629200;224;26518;-70
2022/01/25 05:46:17;;;;;;;30.20;17.87;;;4.30;99.90;;;;;;629149;228;26535;-70
2022/01/25 05:48:41;;;;;;;31.97;18.10;;;4.30;99.90;;;;;;629014;228;26547;-70
2022/01/25 05:51:08;;;;;;;34.20;19.07;;;4.40;99.90;;;;;;629069;228;26785;-70
2022/01/25 05:53:36;;;;;;;29.70;17.67;;;4.30;99.90;;;;;;629192;228;26530;-70
2022/01/25 05:56:03;;;;;;;30.87;17.73;;;4.20;99.90;;;;;;629145;228;26733;-70
2022/01/25 05:58:30;;;;;;;31.40;17.80;;;4.30;99.90;;;;;;628936;228;26575;-70
2022/01/25 06:00:57;;;;;;;32.80;19.10;;;4.30;99.90;;;;;;628833;228;26919;-70
2022/01/25 06:03:25;;;;;;;30.63;17.43;;;4.30;99.90;;;;;;628842;229;26581;-70
2022/01/25 06:05:53;;;;;;;32.77;18.60;;;4.20;99.90;;;;;;628842;228;26577;-70
2022/01/25 06:08:21;;;;;;;33.00;17.67;;;4.10;99.90;;;;;;628899;229;26584;-70
2022/01/25 06:10:49;;;;;;;31.73;17.43;;;4.10;99.90;;;;;;628954;224;26643;-70
2022/01/25 06:13:16;;;;;;;31.30;18.10;;;4.10;99.90;;;;;;628973;229;26588;-70
2022/01/25 06:15:43;;;;;;;33.43;18.43;;;4.20;99.90;;;;;;628962;229;26559;-70
2022/01/25 06:18:11;;;;;;;32.03;18.77;;;4.30;99.90;;;;;;628936;228;26832;-70
2022/01/25 06:20:38;;;;;;;32.27;18.87;;;4.30;99.90;;;;;;628904;228;26588;-70
2022/01/25 06:23:05;;;;;;;31.70;18.43;;;4.40;99.90;;;;;;628947;228;26802;-70
2022/01/25 06:25:34;;;;;;;32.00;19.13;;;4.40;99.90;;;;;;628881;229;26593;-70
2022/01/25 06:27:59;;;;;;;35.33;19.57;;;4.50;99.90;;;;;;628819;226;26813;-70
2022/01/25 06:30:27;;;;;;;32.07;19.50;;;4.60;99.90;;;;;;628796;229;26589;-70
2022/01/25 06:32:54;;;;;;;28.43;17.63;;;4.40;99.90;;;;;;628994;226;26848;-70
2022/01/25 06:35:21;;;;;;;31.07;18.53;;;4.40;99.90;;;;;;630598;228;26582;-73
2022/01/25 06:37:48;;;;;;;29.93;17.97;;;4.80;99.90;;;;;;630151;227;26809;-72
2022/01/25 06:40:16;;;;;;;35.13;19.33;;;4.60;99.90;;;;;;630053;228;26530;-72
2022/01/25 06:42:44;;;;;;;30.00;17.37;;;4.50;99.90;;;;;;629513;228;26590;-72
2022/01/25 06:45:16;;;;;;;33.33;19.07;;;4.60;99.90;;;;;;629461;228;26540;-72
2022/01/25 06:47:41;;;;;;;37.17;21.37;;;4.60;99.90;;;;;;629171;228;26538;-72
2022/01/25 06:50:09;;;;;;;38.63;20.53;;;4.70;99.90;;;;;;629730;228;26510;-72
2022/01/25 06:52:38;;;;;;;36.07;19.93;;;4.60;99.90;;;;;;629592;228;26550;-72
2022/01/25 06:55:05;;;;;;;40.70;21.37;;;4.50;99.90;;;;;;629393;228;26503;-72
2022/01/25 06:57:32;;;;;;;38.70;20.40;;;4.40;99.90;;;;;;629259;228;26802;-72
2022/01/25 06:59:59;;;;;;;35.77;18.93;;;4.50;99.90;;;;;;629543;228;26546;-72
2022/01/25 07:02:27;;;;;;;34.73;20.50;;;4.50;99.90;;;;;;629479;228;26856;-72
2022/01/25 07:04:54;;;;;;;33.93;19.60;;;4.40;99.90;;;;;;629541;228;26514;-72
2022/01/25 07:07:21;;;;;;;33.67;19.43;;;4.50;99.90;;;;;;629580;228;26775;-72
2022/01/25 07:09:49;;;;;;;33.93;19.57;;;4.70;99.90;;;;;;629345;228;26508;-72
2022/01/25 07:12:17;;;;;;;32.83;18.73;;;4.50;99.90;;;;;;629236;229;26582;-72
2022/01/25 07:14:44;;;;;;;32.27;17.63;;;4.50;99.90;;;;;;629247;229;26560;-72
2022/01/25 07:17:11;;;;;;;35.60;19.53;;;4.20;99.90;;;;;;629250;228;26546;-72
2022/01/25 07:19:39;;;;;;;36.13;19.07;;;4.40;99.90;;;;;;629224;228;26540;-72
2022/01/25 07:22:06;;;;;;;38.00;20.73;;;4.40;99.90;;;;;;629286;228;26583;-72
2022/01/25 07:24:34;;;;;;;35.27;19.00;;;4.60;99.90;;;;;;629283;229;26540;-72
2022/01/25 07:27:01;;;;;;;36.20;19.73;;;4.60;99.90;;;;;;629240;228;27004;-72
2022/01/25 07:29:28;;;;;;;42.00;23.00;;;4.70;99.90;;;;;;628840;228;26571;-72
2022/01/25 07:31:55;;;;;;;40.07;20.93;;;4.90;99.90;;;;;;628727;228;26848;-72
2022/01/25 07:34:22;;;;;;;43.03;21.40;;;4.90;99.90;;;;;;628840;228;26568;-72
2022/01/25 07:36:50;;;;;;;45.87;22.47;;;4.90;99.90;;;;;;628637;229;27334;-72
2022/01/25 07:39:17;;;;;;;44.47;23.93;;;5.10;99.90;;;;;;628802;229;26600;-72
2022/01/25 07:41:45;;;;;;;41.63;21.37;;;5.10;99.90;;;;;;628845;228;27141;-72
2022/01/25 07:44:11;;;;;;;44.17;22.70;;;5.10;99.90;;;;;;628665;225;26587;-73
2022/01/25 07:46:38;;;;;;;42.63;23.47;;;5.10;99.90;;;;;;629017;225;26805;-73
2022/01/25 07:49:06;;;;;;;44.80;23.87;;;4.80;99.90;;;;;;627454;228;26551;-73
2022/01/25 07:51:35;;;;;;;43.23;22.60;;;4.60;99.90;;;;;;634913;226;26601;-73
2022/01/25 07:54:02;;;;;;;46.50;23.80;;;4.60;99.90;;;;;;632200;226;26564;-72
2022/01/25 07:56:30;;;;;;;47.10;23.67;;;4.60;99.90;;;;;;626886;228;26632;-74
2022/01/25 07:58:58;;;;;;;45.93;23.27;;;4.60;99.90;;;;;;635788;226;26621;-74
2022/01/25 08:01:26;;;;;;;45.90;23.03;;;4.40;99.90;;;;;;630568;225;26821;-71
2022/01/25 08:03:52;;;;;;;47.70;21.90;;;4.40;99.90;;;;;;628764;228;26809;-73
2022/01/25 08:06:21;;;;;;;51.37;24.17;;;4.70;99.90;;;;;;627594;226;26816;-73
2022/01/25 08:08:46;;;;;;;49.03;25.70;;;5.00;99.90;;;;;;626536;226;26805;-72
2022/01/25 08:11:13;;;;;;;44.57;23.87;;;4.70;99.90;;;;;;629531;226;26619;-72
2022/01/25 08:13:47;;;;;;;42.57;23.40;;;4.80;99.90;;;;;;632422;226;26823;-73
2022/01/25 08:16:08;;;;;;;48.10;23.73;;;4.70;99.90;;;;;;628536;228;26771;-73
2022/01/25 08:18:35;;;;;;;54.80;25.07;;;5.00;99.90;;;;;;629965;226;26867;-73
2022/01/25 08:21:02;;;;;;;48.13;25.33;;;5.20;99.90;;;;;;626316;225;26606;-73
2022/01/25 08:23:30;;;;;;;51.53;26.03;;;5.40;99.90;;;;;;631232;226;26856;-73
2022/01/25 08:25:57;;;;;;;46.27;24.33;;;5.50;99.90;;;;;;631558;226;26595;-73
2022/01/25 08:28:24;;;;;;;51.43;26.00;;;5.50;99.90;;;;;;633609;226;26972;-73
2022/01/25 08:30:52;;;;;;;43.60;23.60;;;5.50;99.90;;;;;;629649;226;26541;-73
2022/01/25 08:33:20;;;;;;;39.97;21.17;;;5.20;99.90;;;;;;630932;225;26605;-73
2022/01/25 08:35:48;;;;;;;38.33;22.53;;;5.60;99.90;;;;;;630540;225;26582;-73
2022/01/25 08:38:16;;;;;;;51.20;27.67;;;6.00;99.90;;;;;;628062;226;26624;-74
2022/01/25 08:40:43;;;;;;;40.83;23.00;;;6.00;99.90;;;;;;628604;225;26572;-73
2022/01/25 08:43:10;;;;;;;44.17;23.47;;;5.90;99.90;;;;;;630538;225;26570;-73
2022/01/25 08:45:37;;;;;;;44.87;23.60;;;6.00;99.90;;;;;;629432;226;26797;-73
2022/01/25 08:48:05;;;;;;;42.50;22.00;;;6.30;99.90;;;;;;627869;226;26637;-73
2022/01/25 08:50:32;;;;;;;42.17;22.53;;;6.10;99.90;;;;;;629204;226;26861;-73
2022/01/25 08:52:59;;;;;;;44.23;22.00;;;6.20;99.90;;;;;;628770;226;26598;-73
2022/01/25 08:55:26;;;;;;;41.13;21.13;;;5.90;99.90;;;;;;628496;226;26810;-73
2022/01/25 08:57:54;;;;;;;42.80;21.97;;;5.40;99.90;;;;;;629488;226;26545;-74
2022/01/25 09:00:21;;;;;;;40.10;22.17;;;5.50;99.90;;;;;;634222;223;26572;-73
2022/01/25 09:02:49;;;;;;;37.60;22.20;;;5.70;99.90;;;;;;631006;225;26612;-73
2022/01/25 09:05:17;;;;;;;47.20;23.03;;;5.50;99.90;;;;;;627661;228;26522;-73
2022/01/25 09:07:45;;;;;;;44.13;22.87;;;5.60;99.90;;;;;;626551;228;26593;-73
2022/01/25 09:10:13;;;;;;;40.67;23.93;;;5.30;99.90;;;;;;627935;228;26542;-73
2022/01/25 09:12:40;;;;;;;39.87;23.10;;;5.30;99.90;;;;;;626253;228;26571;-73
2022/01/25 09:15:07;;;;;;;43.77;22.83;;;5.20;99.90;;;;;;630624;223;26535;-73
2022/01/25 09:17:35;;;;;;;37.50;22.37;;;5.40;99.90;;;;;;631613;226;26519;-73
2022/01/25 09:20:04;;;;;;;47.43;26.07;;;5.60;99.90;;;;;;632243;226;26563;-73
2022/01/25 09:22:30;;;;;;;44.80;23.73;;;5.60;99.90;;;;;;630396;226;26626;-72
2022/01/25 09:24:58;;;;;;;41.07;22.30;;;5.60;99.90;;;;;;626321;228;26817;-73
2022/01/25 09:27:25;;;;;;;41.50;22.07;;;5.60;99.90;;;;;;631276;226;26786;-73
2022/01/25 09:29:52;;;;;;;41.70;23.03;;;5.50;99.90;;;;;;630248;226;26860;-72
2022/01/25 09:32:19;;;;;;;41.37;21.77;;;5.40;99.90;;;;;;627065;225;26602;-72
2022/01/25 09:34:46;;;;;;;38.77;20.83;;;5.20;99.90;;;;;;628363;225;27033;-73
2022/01/25 09:37:14;;;;;;;37.53;21.37;;;5.30;99.90;;;;;;634592;225;26599;-73
2022/01/25 09:39:41;;;;;;;43.27;23.07;;;5.30;99.90;;;;;;628448;228;26798;-73
2022/01/25 09:42:09;;;;;;;41.27;22.53;;;5.40;99.90;;;;;;626677;228;26627;-72
2022/01/25 09:44:36;;;;;;;35.33;18.70;;;5.50;99.90;;;;;;628228;225;27244;-72
2022/01/25 09:47:03;;;;;;;38.90;20.40;;;5.20;99.90;;;;;;625411;228;26546;-73
2022/01/25 09:49:31;;;;;;;37.50;21.10;;;5.10;99.90;;;;;;626737;228;26603;-73
2022/01/25 09:52:02;;;;;;;39.33;21.03;;;4.90;99.90;;;;;;627042;225;26563;-72
2022/01/25 09:54:30;;;;;;;39.20;19.37;;;4.90;99.90;;;;;;628045;229;26932;-73
2022/01/25 09:56:57;;;;;;;37.53;20.23;;;4.80;99.90;;;;;;627423;226;26582;-73
2022/01/25 09:59:26;;;;;;;39.67;19.73;;;4.90;99.90;;;;;;628584;225;26582;-73
2022/01/25 10:01:53;;;;;;;39.13;20.17;;;5.00;99.90;;;;;;629588;225;26603;-73
2022/01/25 10:04:35;;;;;;;38.93;20.60;;;4.80;99.90;;;;;;625449;230;26527;-73
2022/01/25 10:07:00;;;;;;;35.30;19.00;;;4.80;99.90;;;;;;628591;229;26603;-73
2022/01/25 10:09:28;;;;;;;39.80;21.77;;;4.90;99.90;;;;;;630191;226;26827;-73
2022/01/25 10:11:54;;;;;;;38.37;19.87;;;5.00;99.90;;;;;;629164;227;26543;-73
2022/01/25 10:14:23;;;;;;;34.13;18.40;;;5.10;99.90;;;;;;629943;228;26828;-73
2022/01/25 10:16:50;;;;;;;36.20;20.43;;;5.10;99.90;;;;;;633085;225;26618;-73
2022/01/25 10:19:16;;;;;;;34.00;18.10;;;5.10;99.90;;;;;;632622;225;27243;-73
2022/01/25 10:21:43;;;;;;;43.57;19.77;;;4.80;99.90;;;;;;631220;226;26611;-73
2022/01/25 10:24:12;;;;;;;36.80;19.73;;;5.00;99.90;;;;;;630540;225;26852;-73
2022/01/25 10:26:43;;;;;;;36.23;19.70;;;5.10;99.90;;;;;;627266;225;26594;-72
2022/01/25 10:29:11;;;;;;;35.20;19.43;;;5.40;99.90;;;;;;626555;228;26579;-74
2022/01/25 10:31:40;;;;;;;39.37;20.77;;;5.50;99.90;;;;;;627522;228;26602;-75
2022/01/25 10:34:07;;;;;;;34.27;18.00;;;5.40;99.90;;;;;;632057;226;26638;-75
2022/01/25 10:36:35;;;;;;;37.03;18.33;;;5.20;99.90;;;;;;627508;226;26758;-73
2022/01/25 10:39:01;;;;;;;39.57;19.27;;;5.20;99.90;;;;;;626114;225;26578;-72
2022/01/25 10:41:29;;;;;;;34.57;18.53;;;5.30;99.90;;;;;;628057;225;27184;-73
2022/01/25 10:43:57;;;;;;;34.27;17.17;;;5.10;99.90;;;;;;627501;228;26558;-73
2022/01/25 10:46:26;;;;;;;30.20;17.90;;;5.30;99.90;;;;;;628425;229;26587;-74
2022/01/25 10:48:58;;;;;;;32.80;17.73;;;5.30;99.90;;;;;;625653;229;26892;-75
2022/01/25 10:51:26;;;;;;;33.67;18.00;;;5.30;99.90;;;;;;628892;226;26852;-74
2022/01/25 10:54:00;;;;;;;36.83;18.10;;;5.30;99.90;;;;;;631682;226;26839;-74
2022/01/25 10:56:27;;;;;;;32.90;18.27;;;5.30;99.90;;;;;;626115;229;26573;-74
2022/01/25 10:58:55;;;;;;;33.90;17.73;;;5.60;99.90;;;;;;624726;229;26554;-74
2022/01/25 11:01:29;;;;;;;29.27;16.83;;;5.50;99.90;;;;;;624817;229;26619;-73
2022/01/25 11:04:04;;;;;;;31.77;17.60;;;5.90;99.90;;;;;;632420;225;26576;-72
2022/01/25 11:06:31;;;;;;;29.07;16.37;;;5.70;99.90;;;;;;626779;225;26629;-73
2022/01/25 11:09:02;;;;;;;31.30;17.83;;;5.60;99.90;;;;;;626707;229;26924;-73
2022/01/25 11:11:26;;;;;;;31.07;17.60;;;5.50;99.90;;;;;;624982;229;26610;-73
2022/01/25 11:13:54;;;;;;;32.13;17.70;;;5.50;99.90;;;;;;625702;229;26802;-73
2022/01/25 11:16:20;;;;;;;33.30;16.97;;;5.90;99.90;;;;;;625869;229;26556;-73
2022/01/25 11:18:47;;;;;;;28.73;16.10;;;6.10;99.90;;;;;;625853;228;26823;-73
2022/01/25 11:21:15;;;;;;;30.60;17.77;;;6.00;99.90;;;;;;627496;227;26538;-73
2022/01/25 11:23:42;;;;;;;31.67;16.60;;;6.00;99.90;;;;;;627087;228;26783;-73
2022/01/25 11:26:10;;;;;;;28.83;16.83;;;6.00;99.90;;;;;;626550;223;26506;-73
2022/01/25 11:28:38;;;;;;;29.67;16.47;;;5.80;99.90;;;;;;626424;228;26529;-73
2022/01/25 11:31:07;;;;;;;30.87;16.47;;;5.80;99.90;;;;;;625961;228;26590;-72
2022/01/25 11:33:35;;;;;;;28.80;15.87;;;5.80;99.90;;;;;;625897;228;26644;-73
2022/01/25 11:36:01;;;;;;;26.57;14.70;;;5.80;99.90;;;;;;625895;229;26542;-73
2022/01/25 11:38:32;;;;;;;30.40;17.10;;;5.70;99.90;;;;;;625141;229;26646;-74
2022/01/25 11:40:59;;;;;;;26.07;15.20;;;5.80;99.90;;;;;;625701;228;26837;-74
2022/01/25 11:43:26;;;;;;;30.03;16.27;;;6.30;99.90;;;;;;625781;228;26632;-74
2022/01/25 11:45:53;;;;;;;25.70;14.33;;;6.20;99.90;;;;;;625797;228;26821;-74
2022/01/25 11:48:23;;;;;;;26.97;15.60;;;5.80;99.90;;;;;;624692;229;26607;-74
2022/01/25 11:50:50;;;;;;;24.80;14.43;;;5.60;99.90;;;;;;625783;230;26569;-73
2022/01/25 11:53:17;;;;;;;24.73;14.23;;;5.50;99.90;;;;;;625815;228;26902;-73
2022/01/25 11:55:48;;;;;;;22.53;13.80;;;5.50;99.90;;;;;;625718;226;26618;-73
2022/01/25 11:58:14;;;;;;;26.03;15.03;;;5.40;99.90;;;;;;625566;227;26511;-74
2022/01/25 12:00:44;;;;;;;18.47;12.30;;;5.50;99.90;;;;;;625657;228;26539;-73
2022/01/25 12:03:21;;;;;;;21.10;13.17;;;5.60;99.90;;;;;;625230;229;26581;-73
2022/01/25 12:05:55;;;;;;;23.60;13.83;;;5.60;99.90;;;;;;625506;229;26580;-74
2022/01/25 12:08:28;;;;;;;25.93;15.07;;;5.70;99.90;;;;;;625483;224;26531;-73
2022/01/25 12:10:55;;;;;;;25.50;13.60;;;5.80;99.90;;;;;;625623;228;26538;-74
2022/01/25 12:13:20;;;;;;;26.93;15.33;;;5.70;99.90;;;;;;625282;230;26772;-73
2022/01/25 12:15:46;;;;;;;27.07;14.83;;;5.90;99.90;;;;;;625412;229;26530;-73
2022/01/25 12:18:38;;;;;;;23.70;13.87;;;6.00;99.90;;;;;;625635;228;26533;-73
2022/01/25 12:21:05;;;;;;;23.27;13.03;;;6.00;99.90;;;;;;620241;229;26615;-73
2022/01/25 12:23:43;;;;;;;20.50;12.30;;;5.50;99.90;;;;;;625511;229;26546;-73
2022/01/25 12:26:07;;;;;;;23.77;13.53;;;5.60;99.90;;;;;;624806;226;26543;-73
2022/01/25 12:28:32;;;;;;;23.63;13.30;;;5.60;99.90;;;;;;625261;228;26531;-73
2022/01/25 12:31:00;;;;;;;23.40;13.93;;;5.60;99.90;;;;;;625713;227;26547;-73
2022/01/25 12:33:28;;;;;;;22.73;13.77;;;5.70;99.90;;;;;;627182;227;26543;-73
2022/01/25 12:36:02;;;;;;;25.57;15.23;;;5.70;99.90;;;;;;626699;228;26809;-72
2022/01/25 12:38:45;;;;;;;25.60;14.80;;;5.90;99.90;;;;;;626192;229;26539;-71
2022/01/25 12:41:13;;;;;;;22.87;13.20;;;5.20;99.90;;;;;;626215;229;26569;-71
2022/01/25 12:43:41;;;;;;;19.90;12.30;;;5.20;99.90;;;;;;626146;228;26611;-72
2022/01/25 12:46:09;;;;;;;24.90;13.87;;;5.20;99.90;;;;;;626200;228;26613;-72
2022/01/25 12:48:41;;;;;;;26.03;15.07;;;5.50;99.90;;;;;;626055;229;26593;-72
2022/01/25 12:51:07;;;;;;;23.03;13.97;;;5.50;99.90;;;;;;625634;228;26610;-71
2022/01/25 12:53:34;;;;;;;23.97;13.53;;;5.50;99.90;;;;;;625796;228;26885;-71
2022/01/25 12:56:01;;;;;;;21.90;13.33;;;5.70;99.90;;;;;;625852;228;26607;-72
2022/01/25 12:58:28;;;;;;;23.93;13.67;;;5.50;99.90;;;;;;625621;228;26910;-72
2022/01/25 13:00:55;;;;;;;24.23;14.40;;;5.30;99.90;;;;;;625761;228;26572;-71
2022/01/25 13:03:28;;;;;;;25.90;14.87;;;5.20;99.90;;;;;;625786;229;26806;-72
2022/01/25 13:05:56;;;;;;;24.80;14.60;;;5.10;99.90;;;;;;625943;228;26824;-71
2022/01/25 13:08:26;;;;;;;26.10;15.50;;;5.40;99.90;;;;;;625482;229;26534;-72
2022/01/25 13:10:54;;;;;;;27.87;15.87;;;5.40;99.90;;;;;;625313;229;26818;-72
2022/01/25 13:13:43;;;;;;;28.70;15.60;;;5.60;99.90;;;;;;625519;229;26552;-71
2022/01/25 13:16:00;;;;;;;33.07;15.30;;;5.40;99.90;;;;;;624858;229;26515;-72
2022/01/25 13:18:29;;;;;;;29.27;16.40;;;5.20;99.90;;;;;;625553;229;26771;-71
2022/01/25 13:20:57;;;;;;;31.17;16.13;;;5.30;99.90;;;;;;625497;228;26539;-72
2022/01/25 13:23:25;;;;;;;34.40;17.90;;;5.20;99.90;;;;;;625437;228;26775;-72
2022/01/25 13:25:58;;;;;;;29.87;17.10;;;5.30;99.90;;;;;;625634;230;26523;-71
2022/01/25 13:30:38;;;;;;;29.40;16.23;;;5.30;99.90;;;;;;625339;229;26531;-72
2022/01/25 13:31:07;;;;;;;32.23;16.80;;;5.30;99.90;;;;;;623033;230;26591;-71
2022/01/25 13:33:35;;;;;;;32.57;18.23;;;5.20;99.90;;;;;;625246;228;26758;-72
2022/01/25 13:36:03;;;;;;;33.97;17.73;;;5.50;99.90;;;;;;625570;230;26543;-72
2022/01/25 13:38:31;;;;;;;31.37;16.90;;;5.50;99.90;;;;;;625504;226;26795;-71
2022/01/25 13:41:20;;;;;;;29.30;17.67;;;5.50;99.90;;;;;;625528;223;26551;-71
2022/01/25 13:46:17;;;;;;;25.73;14.13;;;5.20;99.90;;;;;;626840;228;26602;-71
2022/01/25 13:48:45;;;;;;;36.67;18.47;;;5.30;99.90;;;;;;626471;229;26558;-71
2022/01/25 13:51:13;;;;;;;34.97;18.50;;;5.30;99.90;;;;;;626427;228;26571;-72
2022/01/25 13:53:40;;;;;;;37.43;19.87;;;5.60;99.90;;;;;;626151;229;26590;-72
2022/01/25 13:56:12;;;;;;;39.33;18.50;;;5.50;99.90;;;;;;626115;228;26583;-71
2022/01/25 13:58:40;;;;;;;31.80;16.40;;;5.30;99.90;;;;;;626138;228;26578;-72
2022/01/25 14:01:08;;;;;;;30.37;16.53;;;5.30;99.90;;;;;;625961;228;27295;-71